Strona główna
METAR-TAF:

METAR-TAF

Lotnisko :

Lotnisko Monmouth Executive

Belmar / Farmingdale, New Jersey, Stany Zjednoczone

Szerokość geograficzna: 40-11N, Długość geograficzna: 074-08W, wysokość: 48 m

Aktualna obserwacja pogody

Raport powstał 35 minut temu, godzina 16:56 UTC
Wiatr 6 kt od południowo-południowy zachód
Temperatura 29°C
Wilgotność 35%
Ciśnienie 1013 hPa
Widzialność: 16.1 km
bezchmurnie

METAR: KBLM 241656Z AUTO 21006KT 10SM CLR 29/12 A2990 RMK AO2 SLP123 T02940122

czas: 13:31 (17:31 UTC)


TAF: brakujący

Obserwacja i prognoza pogody dla ponad 4000 lotnisk (raport METAR i TAF).

Dostępne stacje oznaczono żółtymi i czerwonymi punktami na mapie.

Najedź kursorem aby zobaczyć nazwę stacji.

Kliknij aby zobaczyć obserwacje i prognozy pogody.

Aby zmienić mapę: kliknij na zielony przycisk z czarnym krzyżykiem, aby powiększyć; na zielony przycisk z myślnikiem, aby pomniejszyć; na zielone strzałki, aby przejść do map sąsiednich.


METAR-TAF: